Time;durP1;ratioP1;P1;durP2;ratioP2;P2;SDS_P1;SDS_P2;PMS_P1;PMS_P2;Temp;Humidity;BMP_temperature;BMP_pressure;BME280_temperature;BME280_humidity;BME280_pressure;Samples;Min_cycle;Max_cycle;Signal;HPM_P1;HPM_P2
2023/06/12 00:00:22;;;;;;;6.40;5.80;;;;;24.80;100508.00;;;;2058981;28;20203;-49
2023/06/12 00:01:23;;;;;;;6.00;5.50;;;;;24.80;100506.00;;;;2064200;28;20277;-50
2023/06/12 00:02:23;;;;;;;6.97;5.30;;;;;24.80;100513.00;;;;2065853;28;20788;-49
2023/06/12 00:03:25;;;;;;;7.17;5.90;;;;;24.80;100530.00;;;;2052229;28;20246;-50
2023/06/12 00:04:25;;;;;;;6.20;5.43;;;;;24.80;100508.00;;;;2061331;28;20223;-50
2023/06/12 00:05:27;;;;;;;5.80;5.30;;;;;24.80;100512.00;;;;2061253;28;20466;-49
2023/06/12 00:06:28;;;;;;;6.65;6.05;;;;;24.80;100509.00;;;;2061417;28;20549;-50
2023/06/12 00:07:28;;;;;;;6.40;5.80;;;;;24.80;100511.00;;;;2060991;28;20709;-49
2023/06/12 00:08:30;;;;;;;5.93;5.40;;;;;24.80;100511.00;;;;2058040;28;20788;-50
2023/06/12 00:09:30;;;;;;;6.77;6.17;;;;;24.80;100520.00;;;;2061222;28;20222;-49
2023/06/12 00:10:31;;;;;;;5.10;4.70;;;;;24.80;100513.00;;;;2060478;28;20442;-49
2023/06/12 00:11:31;;;;;;;5.83;5.33;;;;;24.80;100525.00;;;;2061174;28;20214;-50
2023/06/12 00:12:31;;;;;;;5.60;5.20;;;;;24.70;100512.00;;;;2061519;28;20285;-50
2023/06/12 00:13:32;;;;;;;5.50;5.00;;;;;24.70;100515.00;;;;2045407;28;20211;-50
2023/06/12 00:14:32;;;;;;;6.40;5.80;;;;;24.70;100513.00;;;;2059784;28;20222;-50
2023/06/12 00:15:34;;;;;;;5.63;5.13;;;;;24.70;100521.00;;;;2062175;28;20372;-49
2023/06/12 00:16:37;;;;;;;5.90;5.40;;;;;24.70;100509.00;;;;2067537;28;20741;-50
2023/06/12 00:17:38;;;;;;;5.68;5.18;;;;;24.70;100512.00;;;;2061881;28;20469;-50
2023/06/12 00:18:39;;;;;;;5.60;5.10;;;;;24.70;100515.00;;;;2052365;28;20703;-50
2023/06/12 00:19:39;;;;;;;6.18;5.57;;;;;24.70;100511.00;;;;2061280;28;20215;-49
2023/06/12 00:20:40;;;;;;;6.00;5.40;;;;;24.70;100511.00;;;;2068078;28;20230;-49
2023/06/12 00:21:40;;;;;;;6.23;5.37;;;;;24.70;100510.00;;;;2060127;28;20211;-50
2023/06/12 00:22:41;;;;;;;5.90;5.40;;;;;24.70;100507.00;;;;2060858;28;20215;-49
2023/06/12 00:23:41;;;;;;;8.50;5.83;;;;;24.50;100504.00;;;;2057325;28;20276;-49
2023/06/12 00:24:41;;;;;;;5.80;5.20;;;;;24.80;100504.00;;;;2069047;28;20233;-49
2023/06/12 00:25:42;;;;;;;6.17;5.67;;;;;24.80;100503.00;;;;2063297;28;20234;-50
2023/06/12 00:26:42;;;;;;;5.97;5.47;;;;;24.70;100504.00;;;;2061413;28;20219;-50
2023/06/12 00:27:42;;;;;;;6.30;5.80;;;;;24.70;100502.00;;;;2064117;28;20238;-49
2023/06/12 00:28:43;;;;;;;5.70;5.10;;;;;24.70;100501.00;;;;2051749;28;20278;-49
2023/06/12 00:29:43;;;;;;;5.53;5.03;;;;;24.70;100509.00;;;;2061860;28;20223;-50
2023/06/12 00:30:43;;;;;;;6.37;5.87;;;;;24.70;100513.00;;;;2064714;28;20683;-48
2023/06/12 00:31:44;;;;;;;6.33;5.77;;;;;24.70;100509.00;;;;2060568;28;20223;-49
2023/06/12 00:32:44;;;;;;;6.40;5.80;;;;;24.70;100504.00;;;;2061147;28;20234;-49
2023/06/12 00:33:45;;;;;;;5.93;5.43;;;;;24.70;100503.00;;;;2053678;28;20613;-49
2023/06/12 00:34:45;;;;;;;7.43;5.27;;;;;24.70;100502.00;;;;2069059;28;20218;-49
2023/06/12 00:35:47;;;;;;;6.67;6.07;;;;;24.70;100502.00;;;;2061142;28;20215;-50
2023/06/12 00:36:48;;;;;;;6.03;5.50;;;;;24.60;100513.00;;;;2061601;28;20227;-50
2023/06/12 00:37:49;;;;;;;6.07;5.57;;;;;24.70;100507.00;;;;2051506;28;20218;-50
2023/06/12 00:38:51;;;;;;;6.40;5.80;;;;;24.70;100501.00;;;;2059107;28;20266;-49
2023/06/12 00:39:51;;;;;;;6.15;5.65;;;;;24.70;100501.00;;;;2056570;28;20215;-49
2023/06/12 00:40:52;;;;;;;5.83;5.33;;;;;24.70;100508.00;;;;2061284;28;20709;-50
2023/06/12 00:41:52;;;;;;;6.33;5.80;;;;;24.60;100509.00;;;;2060675;28;20211;-49
2023/06/12 00:42:52;;;;;;;6.13;5.63;;;;;24.60;100502.00;;;;2051333;28;20213;-50
2023/06/12 00:43:53;;;;;;;6.20;5.60;;;;;24.70;100497.00;;;;2063234;28;20211;-50
2023/06/12 00:44:53;;;;;;;6.00;5.40;;;;;24.70;100501.00;;;;2068697;28;20593;-49
2023/06/12 00:45:54;;;;;;;6.10;5.60;;;;;24.70;100501.00;;;;2061091;28;20231;-49
2023/06/12 00:46:55;;;;;;;6.30;5.80;;;;;24.70;100504.00;;;;2063376;28;20223;-48
2023/06/12 00:47:57;;;;;;;6.23;5.60;;;;;24.70;100506.00;;;;2051801;28;20297;-50
2023/06/12 00:48:57;;;;;;;6.03;5.43;;;;;24.70;100500.00;;;;2052274;28;20207;-50
2023/06/12 00:49:58;;;;;;;8.03;5.27;;;;;24.70;100492.00;;;;2059933;28;20468;-49
2023/06/12 00:50:59;;;;;;;6.68;5.45;;;;;24.70;100496.00;;;;2063200;28;20211;-49
2023/06/12 00:52:01;;;;;;;7.72;6.13;;;;;24.70;100493.00;;;;2063366;28;20235;-49
2023/06/12 00:53:02;;;;;;;6.10;5.57;;;;;24.70;100455.00;;;;2043151;28;22327;-50
2023/06/12 00:54:02;;;;;;;5.50;4.97;;;;;24.70;100497.00;;;;2063130;28;20273;-50
2023/06/12 00:55:04;;;;;;;14.73;5.57;;;;;24.70;100490.00;;;;2058825;28;20286;-50
2023/06/12 00:56:05;;;;;;;6.07;5.47;;;;;24.70;100499.00;;;;2055583;28;20316;-50
2023/06/12 00:57:07;;;;;;;6.83;6.23;;;;;24.70;100491.00;;;;2060572;28;20272;-49
2023/06/12 00:58:07;;;;;;;6.20;5.70;;;;;24.70;100491.00;;;;2052860;28;20230;-50
2023/06/12 00:59:07;;;;;;;6.40;5.80;;;;;24.70;100403.00;;;;2058885;28;20499;-49
2023/06/12 01:00:09;;;;;;;5.63;5.13;;;;;24.70;100487.00;;;;2058885;28;20215;-48
2023/06/12 01:01:10;;;;;;;6.28;5.60;;;;;24.70;100488.00;;;;2060228;28;20214;-49
2023/06/12 01:02:10;;;;;;;7.50;5.80;;;;;24.70;100501.00;;;;2064670;28;20215;-50
2023/06/12 01:03:12;;;;;;;5.83;5.33;;;;;24.70;100493.00;;;;2056113;28;20254;-50
2023/06/12 01:04:13;;;;;;;5.78;5.25;;;;;24.70;100490.00;;;;2059609;28;20261;-50
2023/06/12 01:05:15;;;;;;;6.07;5.50;;;;;24.70;100491.00;;;;2066070;28;20202;-49
2023/06/12 01:06:16;;;;;;;6.95;5.75;;;;;24.70;100495.00;;;;2064704;28;20298;-49
2023/06/12 01:07:29;;;;;;;5.93;5.40;;;;;24.70;100490.00;;;;2052279;28;20231;-49
2023/06/12 01:08:34;;;;;;;6.60;5.80;;;;;24.70;100491.00;;;;2051121;28;20727;-50
2023/06/12 01:09:46;;;;;;;5.72;5.22;;;;;24.70;100501.00;;;;2052397;28;20526;-49
2023/06/12 01:10:50;;;;;;;6.45;5.85;;;;;24.70;100496.00;;;;2039730;28;20221;-50
2023/06/12 01:11:51;;;;;;;6.80;6.20;;;;;24.70;100493.00;;;;2060644;28;20247;-50
2023/06/12 01:12:52;;;;;;;6.23;5.73;;;;;24.70;100496.00;;;;2055407;28;20210;-50
2023/06/12 01:13:52;;;;;;;6.30;5.80;;;;;24.70;100494.00;;;;2051886;28;20467;-48
2023/06/12 01:14:52;;;;;;;6.07;5.57;;;;;24.70;100483.00;;;;2061898;28;20233;-50
2023/06/12 01:15:53;;;;;;;6.33;5.83;;;;;24.60;100489.00;;;;2067738;28;20714;-49
2023/06/12 01:16:58;;;;;;;7.70;6.37;;;;;24.60;100484.00;;;;2061123;28;20717;-50
2023/06/12 01:17:58;;;;;;;6.00;5.50;;;;;24.60;100487.00;;;;2051666;28;20211;-49
2023/06/12 01:19:00;;;;;;;6.90;5.70;;;;;24.60;100492.00;;;;2062028;28;21281;-49
2023/06/12 01:20:03;;;;;;;6.77;5.93;;;;;24.60;100491.00;;;;2061277;28;20215;-49
2023/06/12 01:21:05;;;;;;;6.63;6.03;;;;;24.60;100476.00;;;;2059501;28;20573;-50
2023/06/12 01:22:10;;;;;;;6.10;5.60;;;;;24.60;100487.00;;;;2063473;28;20457;-49
2023/06/12 01:23:32;;;;;;;6.38;5.88;;;;;24.60;100487.00;;;;2038412;28;20231;-50
2023/06/12 01:24:53;;;;;;;6.07;5.57;;;;;24.60;100488.00;;;;2055686;28;20219;-48
2023/06/12 01:26:05;;;;;;;6.57;6.07;;;;;24.60;100482.00;;;;2061708;28;20978;-50
2023/06/12 01:27:27;;;;;;;5.85;5.35;;;;;24.60;100483.00;;;;2057459;28;20631;-49
2023/06/12 01:28:40;;;;;;;6.57;6.00;;;;;24.50;100485.00;;;;2046250;28;20233;-50
2023/06/12 01:29:52;;;;;;;6.53;5.85;;;;;24.50;100490.00;;;;2068108;28;20638;-51
2023/06/12 01:31:13;;;;;;;7.82;5.95;;;;;24.60;100485.00;;;;2063833;28;20226;-49
2023/06/12 01:32:17;;;;;;;5.95;5.45;;;;;24.60;100481.00;;;;2062345;28;20306;-50
2023/06/12 01:33:19;;;;;;;6.25;5.75;;;;;24.50;100482.00;;;;2054589;28;20236;-50
2023/06/12 01:34:21;;;;;;;7.97;5.80;;;;;24.60;100483.00;;;;2061785;28;20223;-50
2023/06/12 01:35:23;;;;;;;6.00;5.50;;;;;24.40;100482.00;;;;2051574;28;20995;-50
2023/06/12 01:36:24;;;;;;;6.53;5.93;;;;;24.40;100477.00;;;;2049925;28;20219;-49
2023/06/12 01:37:36;;;;;;;6.00;5.47;;;;;24.50;100474.00;;;;2048694;28;20243;-50
2023/06/12 01:38:37;;;;;;;6.20;5.60;;;;;24.50;100482.00;;;;2043487;28;20220;-50
2023/06/12 01:39:39;;;;;;;6.77;6.17;;;;;24.50;100485.00;;;;2056074;28;20500;-49
2023/06/12 01:40:39;;;;;;;6.10;5.40;;;;;24.50;100479.00;;;;2054063;28;20487;-50
2023/06/12 01:41:40;;;;;;;6.47;5.87;;;;;24.50;100480.00;;;;2059562;28;20281;-49
2023/06/12 01:42:40;;;;;;;6.23;5.73;;;;;24.50;100484.00;;;;2058870;28;20683;-52
2023/06/12 01:43:40;;;;;;;6.40;5.90;;;;;24.60;100486.00;;;;2054438;28;20769;-50
2023/06/12 01:44:41;;;;;;;6.70;6.10;;;;;24.50;100482.00;;;;2062422;28;20224;-50
2023/06/12 01:45:41;;;;;;;5.70;5.30;;;;;24.50;100479.00;;;;2061665;28;20238;-50
2023/06/12 01:46:41;;;;;;;6.43;5.93;;;;;24.50;100482.00;;;;2055249;28;20359;-50
2023/06/12 01:47:42;;;;;;;6.27;5.77;;;;;24.50;100481.00;;;;2069268;28;20284;-49
2023/06/12 01:48:42;;;;;;;7.30;6.37;;;;;24.50;100477.00;;;;2052180;28;20262;-49
2023/06/12 01:49:42;;;;;;;6.43;5.90;;;;;24.50;100480.00;;;;2061651;28;20281;-49
2023/06/12 01:50:43;;;;;;;6.00;5.50;;;;;24.60;100480.00;;;;2068984;28;20222;-49
2023/06/12 01:51:44;;;;;;;5.93;5.40;;;;;24.50;100484.00;;;;2063466;28;20377;-50
2023/06/12 01:52:44;;;;;;;5.83;5.33;;;;;24.50;100483.00;;;;2069218;28;20486;-50
2023/06/12 01:53:44;;;;;;;6.87;6.17;;;;;24.50;100489.00;;;;2051078;28;20219;-50
2023/06/12 01:54:47;;;;;;;6.97;6.37;;;;;24.50;100479.00;;;;2060702;28;20231;-49
2023/06/12 01:55:49;;;;;;;5.95;5.45;;;;;24.50;100484.00;;;;2060751;28;20223;-49
2023/06/12 01:56:49;;;;;;;6.95;6.35;;;;;24.50;100489.00;;;;2060245;28;20738;-50
2023/06/12 01:57:50;;;;;;;6.10;5.57;;;;;24.50;100478.00;;;;2052048;28;20206;-50
2023/06/12 01:58:54;;;;;;;6.70;6.20;;;;;24.50;100480.00;;;;2060737;28;20262;-49
2023/06/12 01:59:54;;;;;;;6.30;5.70;;;;;24.50;100477.00;;;;2060232;28;20695;-49
2023/06/12 02:00:55;;;;;;;6.23;5.73;;;;;24.40;100481.00;;;;2055276;28;20223;-49
2023/06/12 02:01:56;;;;;;;5.90;5.50;;;;;24.50;100481.00;;;;2060394;28;20215;-49
2023/06/12 02:02:56;;;;;;;6.80;6.20;;;;;24.50;100483.00;;;;2044653;28;20544;-49
2023/06/12 02:03:56;;;;;;;6.30;5.80;;;;;24.50;100479.00;;;;2053329;28;20215;-49
2023/06/12 02:04:57;;;;;;;6.17;5.67;;;;;24.50;100483.00;;;;2059830;28;20215;-50
2023/06/12 02:05:57;;;;;;;6.80;6.20;;;;;24.50;100482.00;;;;2068012;28;20218;-49
2023/06/12 02:06:58;;;;;;;6.80;6.17;;;;;24.50;100488.00;;;;2059937;28;20226;-49
2023/06/12 02:07:58;;;;;;;6.33;5.80;;;;;24.50;100484.00;;;;2053238;28;20222;-49
2023/06/12 02:08:58;;;;;;;6.43;5.93;;;;;24.50;100479.00;;;;2069456;28;20221;-49
2023/06/12 02:09:59;;;;;;;6.10;5.60;;;;;24.50;100479.00;;;;2058950;28;20230;-49
2023/06/12 02:10:59;;;;;;;6.93;6.20;;;;;24.50;100477.00;;;;2056400;28;20223;-49
2023/06/12 02:12:00;;;;;;;6.97;6.37;;;;;24.40;100481.00;;;;2065167;28;20250;-49
2023/06/12 02:13:01;;;;;;;6.57;5.93;;;;;24.50;100470.00;;;;2052547;28;20230;-50
2023/06/12 02:14:01;;;;;;;7.60;7.00;;;;;24.50;100483.00;;;;2055052;28;20277;-49
2023/06/12 02:15:02;;;;;;;6.90;6.20;;;;;24.40;100479.00;;;;2063221;28;20210;-49
2023/06/12 02:16:03;;;;;;;6.60;6.00;;;;;24.40;100483.00;;;;2063673;28;20305;-49
2023/06/12 02:17:03;;;;;;;6.15;5.65;;;;;24.50;100476.00;;;;2062694;28;20229;-49
2023/06/12 02:18:04;;;;;;;6.90;6.30;;;;;24.40;100480.00;;;;2054906;28;20214;-49
2023/06/12 02:19:05;;;;;;;6.30;5.80;;;;;24.40;100475.00;;;;2062790;28;20310;-50
2023/06/12 02:20:06;;;;;;;8.80;6.70;;;;;24.40;100479.00;;;;2058733;28;20466;-49
2023/06/12 02:21:06;;;;;;;6.70;6.10;;;;;24.40;100475.00;;;;2057057;28;20266;-49
2023/06/12 02:22:06;;;;;;;7.50;6.80;;;;;24.40;100474.00;;;;2059010;28;20222;-49
2023/06/12 02:23:07;;;;;;;7.00;6.30;;;;;24.40;100476.00;;;;2049813;28;20231;-49
2023/06/12 02:24:07;;;;;;;6.50;5.90;;;;;24.40;100482.00;;;;2057971;28;20220;-49
2023/06/12 02:25:08;;;;;;;6.80;6.10;;;;;24.40;100475.00;;;;2058630;28;20305;-49
2023/06/12 02:26:08;;;;;;;6.30;5.77;;;;;24.30;100476.00;;;;2055149;28;20234;-49
2023/06/12 02:27:10;;;;;;;6.90;6.30;;;;;24.30;100492.00;;;;2054271;28;20681;-49
2023/06/12 02:28:10;;;;;;;6.50;5.90;;;;;24.40;100489.00;;;;2053545;28;21007;-50
2023/06/12 02:29:13;;;;;;;6.00;5.50;;;;;24.40;100484.00;;;;2070783;28;21043;-51
2023/06/12 02:30:13;;;;;;;6.40;5.80;;;;;24.40;100481.00;;;;2067087;28;20428;-50
2023/06/12 02:31:14;;;;;;;6.80;6.13;;;;;24.40;100487.00;;;;2060163;28;20220;-50
2023/06/12 02:32:14;;;;;;;6.67;6.07;;;;;24.40;100486.00;;;;2064816;28;20206;-49
2023/06/12 02:33:14;;;;;;;7.20;6.50;;;;;24.40;100483.00;;;;2051952;28;20305;-49
2023/06/12 02:34:15;;;;;;;6.43;5.83;;;;;24.30;100483.00;;;;2057671;28;20637;-49
2023/06/12 02:35:15;;;;;;;6.30;5.80;;;;;24.30;100484.00;;;;2056610;28;20624;-49
2023/06/12 02:36:16;;;;;;;6.60;6.00;;;;;24.40;100485.00;;;;2064587;28;20566;-49
2023/06/12 02:37:16;;;;;;;7.50;6.60;;;;;24.30;100486.00;;;;2060287;28;20203;-51
2023/06/12 02:38:16;;;;;;;6.40;5.83;;;;;24.30;100479.00;;;;2054331;28;20229;-50
2023/06/12 02:39:17;;;;;;;5.60;5.10;;;;;24.30;100482.00;;;;2072479;28;20721;-50
2023/06/12 02:40:17;;;;;;;6.40;5.80;;;;;24.30;100484.00;;;;2066337;28;20215;-50
2023/06/12 02:41:17;;;;;;;6.10;5.60;;;;;24.30;100483.00;;;;2056568;28;20253;-50
2023/06/12 02:42:18;;;;;;;6.40;5.90;;;;;24.30;100489.00;;;;2059545;28;20916;-50
2023/06/12 02:43:18;;;;;;;6.63;6.03;;;;;24.30;100489.00;;;;2053901;28;20694;-49
2023/06/12 02:44:18;;;;;;;6.83;6.23;;;;;24.30;100488.00;;;;2061114;28;20257;-50
2023/06/12 02:45:21;;;;;;;6.67;6.17;;;;;24.30;100491.00;;;;2060337;28;20629;-50
2023/06/12 02:46:21;;;;;;;6.40;5.90;;;;;24.30;100481.00;;;;2065570;28;20302;-49
2023/06/12 02:47:21;;;;;;;6.60;6.00;;;;;24.10;100491.00;;;;2063803;28;20943;-49
2023/06/12 02:48:22;;;;;;;6.83;6.23;;;;;24.30;100481.00;;;;2052556;28;20584;-49
2023/06/12 02:49:23;;;;;;;6.43;5.93;;;;;24.30;100488.00;;;;2056142;28;20856;-49
2023/06/12 02:50:24;;;;;;;6.75;6.25;;;;;24.30;100490.00;;;;2065356;28;20199;-50
2023/06/12 02:51:24;;;;;;;6.40;5.90;;;;;24.30;100487.00;;;;2065979;28;20202;-50
2023/06/12 02:52:26;;;;;;;6.63;6.07;;;;;24.30;100483.00;;;;2065906;28;20203;-49
2023/06/12 02:53:26;;;;;;;7.17;6.57;;;;;24.30;100485.00;;;;2060147;28;20214;-49
2023/06/12 02:54:27;;;;;;;6.20;5.70;;;;;24.30;100488.00;;;;2071833;28;20562;-49
2023/06/12 02:55:28;;;;;;;6.70;6.20;;;;;24.30;100493.00;;;;2064050;28;20285;-49
2023/06/12 02:56:28;;;;;;;6.40;5.90;;;;;24.30;100485.00;;;;2060420;28;20207;-49
2023/06/12 02:57:28;;;;;;;6.00;5.47;;;;;24.40;100484.00;;;;2066495;28;20214;-49
2023/06/12 02:58:28;;;;;;;6.53;5.97;;;;;24.30;100489.00;;;;2056258;28;20215;-50
2023/06/12 02:59:29;;;;;;;7.23;6.53;;;;;24.30;100490.00;;;;2056717;28;20215;-49
2023/06/12 03:00:29;;;;;;;6.87;6.27;;;;;24.30;100499.00;;;;2060635;28;20221;-49
2023/06/12 03:01:30;;;;;;;6.37;5.77;;;;;24.30;100497.00;;;;2060481;28;20234;-49
2023/06/12 03:02:31;;;;;;;6.70;5.90;;;;;24.20;100490.00;;;;2066740;28;20253;-49
2023/06/12 03:03:31;;;;;;;6.03;5.53;;;;;24.20;100493.00;;;;2051842;28;20462;-49
2023/06/12 03:04:32;;;;;;;6.53;5.93;;;;;24.20;100491.00;;;;2062075;28;20242;-49
2023/06/12 03:05:34;;;;;;;6.82;6.22;;;;;24.20;100489.00;;;;2068551;28;20552;-49
2023/06/12 03:06:34;;;;;;;6.93;6.32;;;;;24.20;100494.00;;;;2062254;28;20621;-49
2023/06/12 03:07:36;;;;;;;8.00;7.00;;;;;24.20;100492.00;;;;2060466;28;20223;-49
2023/06/12 03:08:37;;;;;;;6.05;5.45;;;;;24.20;100488.00;;;;2057559;28;20210;-49
2023/06/12 03:09:38;;;;;;;7.00;6.37;;;;;24.30;100495.00;;;;2063177;28;20223;-50
2023/06/12 03:10:39;;;;;;;7.30;6.60;;;;;24.30;100488.00;;;;2059849;28;20706;-49
2023/06/12 03:11:39;;;;;;;8.50;6.53;;;;;24.30;100490.00;;;;2058531;28;20250;-49
2023/06/12 03:12:40;;;;;;;6.73;6.23;;;;;24.20;100494.00;;;;2064501;28;20218;-49
2023/06/12 03:13:40;;;;;;;7.00;6.40;;;;;24.20;100486.00;;;;2050272;28;20219;-49
2023/06/12 03:14:42;;;;;;;7.43;6.67;;;;;24.20;100501.00;;;;2059806;28;20217;-52
2023/06/12 03:15:42;;;;;;;7.93;6.40;;;;;24.30;100493.00;;;;2067093;28;20225;-50
2023/06/12 03:16:42;;;;;;;6.00;5.50;;;;;24.30;100491.00;;;;2060051;28;20575;-50
2023/06/12 03:17:43;;;;;;;6.77;6.17;;;;;24.20;100496.00;;;;2061072;28;20215;-50
2023/06/12 03:18:43;;;;;;;6.70;6.10;;;;;24.20;100499.00;;;;2055030;28;20218;-50
2023/06/12 03:19:44;;;;;;;6.70;6.00;;;;;24.20;100495.00;;;;2069873;28;20749;-50
2023/06/12 03:20:45;;;;;;;6.40;5.85;;;;;24.20;100496.00;;;;2058137;28;20241;-49
2023/06/12 03:21:45;;;;;;;6.77;6.27;;;;;24.20;100496.00;;;;2060928;28;20211;-50
2023/06/12 03:22:45;;;;;;;7.33;6.63;;;;;24.20;100510.00;;;;2064320;28;20302;-51
2023/06/12 03:23:46;;;;;;;6.40;5.80;;;;;24.20;100505.00;;;;2051714;28;20226;-50
2023/06/12 03:24:46;;;;;;;6.53;6.03;;;;;24.20;100504.00;;;;2062669;28;20222;-50
2023/06/12 03:25:47;;;;;;;6.67;6.17;;;;;24.20;100506.00;;;;2065518;28;20223;-49
2023/06/12 03:26:47;;;;;;;6.80;5.93;;;;;24.20;100499.00;;;;2070109;28;20237;-49
2023/06/12 03:27:49;;;;;;;6.60;6.10;;;;;24.20;100501.00;;;;2056899;28;20549;-50
2023/06/12 03:28:49;;;;;;;6.47;5.88;;;;;24.10;100504.00;;;;2061262;28;20605;-50
2023/06/12 03:29:50;;;;;;;6.60;6.00;;;;;24.10;100510.00;;;;2070350;28;20222;-49
2023/06/12 03:30:50;;;;;;;6.28;5.78;;;;;24.10;100504.00;;;;2061372;28;20611;-49
2023/06/12 03:31:53;;;;;;;6.83;6.33;;;;;24.10;100503.00;;;;2061843;28;20214;-49
2023/06/12 03:32:56;;;;;;;6.05;5.55;;;;;24.20;100504.00;;;;2045080;28;20223;-49
2023/06/12 03:33:56;;;;;;;6.35;5.75;;;;;24.20;100506.00;;;;2053749;28;20227;-49
2023/06/12 03:34:56;;;;;;;6.67;6.07;;;;;24.20;100504.00;;;;2062861;28;20701;-49
2023/06/12 03:35:57;;;;;;;6.47;5.87;;;;;24.20;100504.00;;;;2062308;28;20242;-49
2023/06/12 03:36:57;;;;;;;7.13;6.53;;;;;24.10;100505.00;;;;2067900;28;20232;-49
2023/06/12 03:37:58;;;;;;;7.00;6.33;;;;;24.20;100522.00;;;;2051906;28;20635;-49
2023/06/12 03:38:58;;;;;;;6.10;5.60;;;;;24.20;100505.00;;;;2056202;28;20605;-49
2023/06/12 03:39:58;;;;;;;6.33;5.83;;;;;24.10;100500.00;;;;2067508;28;20584;-50
2023/06/12 03:40:59;;;;;;;6.30;5.80;;;;;24.10;100502.00;;;;2061598;28;21102;-49
2023/06/12 03:41:59;;;;;;;6.60;6.00;;;;;24.10;100502.00;;;;2061626;28;20246;-49
2023/06/12 03:42:59;;;;;;;6.20;5.60;;;;;24.10;100502.00;;;;2051508;28;20253;-50
2023/06/12 03:44:00;;;;;;;6.60;6.10;;;;;24.10;100499.00;;;;2063876;28;20349;-50
2023/06/12 03:45:00;;;;;;;6.47;5.97;;;;;24.10;100503.00;;;;2062701;28;20215;-50
2023/06/12 03:46:00;;;;;;;6.17;5.57;;;;;24.10;100502.00;;;;2070880;28;20245;-49
2023/06/12 03:47:01;;;;;;;7.13;6.17;;;;;24.10;100503.00;;;;2065277;28;20215;-49
2023/06/12 03:48:01;;;;;;;6.20;5.70;;;;;24.10;100500.00;;;;2052873;28;20361;-50
2023/06/12 03:49:03;;;;;;;6.40;5.80;;;;;24.10;100500.00;;;;2061920;28;20223;-49
2023/06/12 03:50:03;;;;;;;6.35;5.85;;;;;24.10;100502.00;;;;2062821;28;20230;-49
2023/06/12 03:51:03;;;;;;;6.60;6.00;;;;;24.10;100503.00;;;;2068234;28;20742;-49
2023/06/12 03:52:04;;;;;;;6.60;6.10;;;;;24.10;100505.00;;;;2060033;28;20214;-49
2023/06/12 03:53:04;;;;;;;6.37;5.77;;;;;24.10;100505.00;;;;2046743;28;20216;-49
2023/06/12 03:54:05;;;;;;;6.93;6.33;;;;;24.10;100505.00;;;;2061882;28;20227;-49
2023/06/12 03:55:05;;;;;;;6.27;5.67;;;;;24.10;100509.00;;;;2062364;28;20226;-49
2023/06/12 03:56:06;;;;;;;6.53;5.97;;;;;24.10;100508.00;;;;2064079;28;20358;-50
2023/06/12 03:57:07;;;;;;;6.88;6.28;;;;;24.20;100506.00;;;;2063531;28;20215;-50
2023/06/12 03:58:07;;;;;;;6.70;6.10;;;;;24.10;100513.00;;;;2059819;28;20734;-49
2023/06/12 03:59:07;;;;;;;7.87;6.50;;;;;24.10;100504.00;;;;2066352;28;20296;-49
2023/06/12 04:00:09;;;;;;;6.80;6.20;;;;;24.10;100511.00;;;;2066310;28;20974;-49
2023/06/12 04:01:10;;;;;;;6.30;5.80;;;;;24.10;100506.00;;;;2066805;28;20309;-49
2023/06/12 04:02:10;;;;;;;6.57;5.97;;;;;24.10;100504.00;;;;2064233;28;20226;-49
2023/06/12 04:03:10;;;;;;;6.50;5.90;;;;;24.10;100509.00;;;;2058917;28;20250;-49
2023/06/12 04:04:11;;;;;;;7.30;6.53;;;;;24.10;100506.00;;;;2062313;28;20210;-49
2023/06/12 04:05:11;;;;;;;6.83;6.23;;;;;24.10;100504.00;;;;2064907;28;20219;-49
2023/06/12 04:06:12;;;;;;;6.83;6.23;;;;;24.10;100495.00;;;;2064129;28;20227;-49
2023/06/12 04:07:14;;;;;;;6.53;5.97;;;;;24.10;100506.00;;;;2064488;28;20273;-49
2023/06/12 04:08:15;;;;;;;6.65;6.15;;;;;24.10;100506.00;;;;2054197;28;20281;-50
2023/06/12 04:09:16;;;;;;;6.63;6.07;;;;;24.00;100511.00;;;;2063846;28;20679;-49
2023/06/12 04:10:16;;;;;;;6.53;5.93;;;;;24.10;100509.00;;;;2064545;28;20265;-49
2023/06/12 04:11:18;;;;;;;7.30;6.63;;;;;24.00;100504.00;;;;2060480;28;20219;-50
2023/06/12 04:12:19;;;;;;;5.97;5.38;;;;;24.10;100512.00;;;;2065562;28;20584;-50
2023/06/12 04:13:19;;;;;;;7.43;6.17;;;;;24.10;100510.00;;;;2055228;28;20237;-50
2023/06/12 04:14:20;;;;;;;7.20;6.40;;;;;24.10;100511.00;;;;2066829;28;20227;-49
2023/06/12 04:15:21;;;;;;;6.87;6.17;;;;;24.10;100510.00;;;;2061447;28;20230;-49
2023/06/12 04:16:21;;;;;;;6.97;6.38;;;;;24.10;100508.00;;;;2065915;28;20206;-50
2023/06/12 04:17:22;;;;;;;6.87;6.27;;;;;24.10;100510.00;;;;2066471;28;20697;-49
2023/06/12 04:18:23;;;;;;;6.53;5.70;;;;;24.10;100510.00;;;;2052120;28;20586;-50
2023/06/12 04:19:23;;;;;;;6.75;5.93;;;;;24.10;100508.00;;;;2065827;28;20222;-49
2023/06/12 04:20:26;;;;;;;6.13;5.63;;;;;24.10;100520.00;;;;2066688;28;20210;-50
2023/06/12 04:21:26;;;;;;;6.57;5.97;;;;;24.00;100501.00;;;;2057116;28;20210;-49
2023/06/12 04:22:27;;;;;;;6.70;6.10;;;;;24.00;100513.00;;;;2061478;28;20234;-50
2023/06/12 04:23:29;;;;;;;6.77;6.17;;;;;24.10;100506.00;;;;2056490;28;20966;-49
2023/06/12 04:24:30;;;;;;;6.10;5.60;;;;;24.10;100514.00;;;;2062529;28;20477;-49
2023/06/12 04:25:32;;;;;;;7.55;6.15;;;;;24.10;100510.00;;;;2062067;28;20265;-49
2023/06/12 04:26:34;;;;;;;7.60;6.90;;;;;24.10;100505.00;;;;2067101;28;20214;-49
2023/06/12 04:27:34;;;;;;;7.00;6.30;;;;;24.10;100506.00;;;;2067008;28;20219;-49
2023/06/12 04:28:38;;;;;;;6.50;5.90;;;;;24.00;100510.00;;;;2055071;28;20632;-50
2023/06/12 04:29:38;;;;;;;7.65;6.88;;;;;24.10;100513.00;;;;2060945;28;20714;-49
2023/06/12 04:30:41;;;;;;;6.30;5.80;;;;;24.10;100508.00;;;;2062254;28;20230;-50
2023/06/12 04:31:41;;;;;;;6.07;5.47;;;;;24.10;100510.00;;;;2063164;28;20726;-49
2023/06/12 04:32:42;;;;;;;7.07;6.33;;;;;24.10;100510.00;;;;2062113;28;20254;-50
2023/06/12 04:33:42;;;;;;;6.57;5.97;;;;;24.10;100504.00;;;;2048728;28;20226;-49
2023/06/12 04:34:45;;;;;;;6.60;6.00;;;;;24.10;100512.00;;;;2067762;28;20210;-49
2023/06/12 04:35:45;;;;;;;6.18;5.60;;;;;24.10;100515.00;;;;2063265;28;20247;-50
2023/06/12 04:36:46;;;;;;;6.87;6.37;;;;;24.10;100516.00;;;;2060924;28;21018;-50
2023/06/12 04:37:52;;;;;;;7.20;6.50;;;;;24.10;100515.00;;;;2068305;28;20218;-49
2023/06/12 04:38:52;;;;;;;6.20;5.65;;;;;24.10;100514.00;;;;2063727;28;20866;-49
2023/06/12 04:39:53;;;;;;;6.97;6.27;;;;;24.10;100513.00;;;;2061757;28;20217;-49
2023/06/12 04:40:54;;;;;;;6.87;6.27;;;;;24.10;100515.00;;;;2060839;28;20211;-49
2023/06/12 04:41:56;;;;;;;6.73;6.10;;;;;24.10;100501.00;;;;2064767;28;20229;-49
2023/06/12 04:42:56;;;;;;;6.70;6.20;;;;;24.20;100515.00;;;;2052496;28;20238;-50
2023/06/12 04:44:00;;;;;;;7.27;6.67;;;;;24.10;100512.00;;;;2059996;28;20281;-50
2023/06/12 04:45:01;;;;;;;7.28;6.57;;;;;24.10;100514.00;;;;2062167;28;20278;-49
2023/06/12 04:46:02;;;;;;;6.20;5.70;;;;;24.00;100513.00;;;;2064501;28;20290;-49
2023/06/12 04:47:04;;;;;;;7.10;6.50;;;;;24.10;100524.00;;;;2064247;28;20463;-50
2023/06/12 04:48:06;;;;;;;6.95;6.25;;;;;24.20;100521.00;;;;2052580;28;20214;-50
2023/06/12 04:49:06;;;;;;;8.05;6.97;;;;;24.10;100521.00;;;;2070445;28;20221;-49
2023/06/12 04:50:08;;;;;;;6.43;5.93;;;;;24.10;100510.00;;;;2070639;28;20234;-49
2023/06/12 04:51:09;;;;;;;8.25;7.55;;;;;24.10;100509.00;;;;2061814;28;20737;-50
2023/06/12 04:52:12;;;;;;;7.03;6.53;;;;;24.10;100509.00;;;;2064389;28;20276;-49
2023/06/12 04:53:12;;;;;;;7.32;6.72;;;;;24.20;100514.00;;;;2052148;28;20231;-50
2023/06/12 04:54:13;;;;;;;7.27;6.57;;;;;24.10;100516.00;;;;2062235;28;20920;-50
2023/06/12 04:55:16;;;;;;;7.30;6.60;;;;;24.20;100518.00;;;;2063216;28;20226;-49
2023/06/12 04:56:20;;;;;;;6.35;5.85;;;;;24.20;100515.00;;;;2067067;28;20214;-50
2023/06/12 04:57:20;;;;;;;6.70;6.05;;;;;24.20;100507.00;;;;2059773;28;20211;-50
2023/06/12 04:58:20;;;;;;;7.70;6.97;;;;;24.20;100509.00;;;;2055348;28;20222;-51
2023/06/12 04:59:21;;;;;;;7.77;7.07;;;;;24.30;100513.00;;;;2069800;28;20822;-50
2023/06/12 05:00:22;;;;;;;6.90;6.30;;;;;24.20;100510.00;;;;2064911;28;20888;-49
2023/06/12 05:01:23;;;;;;;7.10;6.55;;;;;24.20;100508.00;;;;2066039;28;20293;-49
2023/06/12 05:02:23;;;;;;;7.27;6.67;;;;;24.20;100512.00;;;;2061164;28;20215;-49
2023/06/12 05:03:25;;;;;;;7.90;7.17;;;;;24.20;100510.00;;;;2055535;28;20229;-50